createdAt,value
2022-10-15T00:00:52.171Z,12.09
2022-10-15T00:03:19.319Z,12.09
2022-10-15T00:05:46.375Z,12.10
2022-10-15T00:08:13.951Z,12.10
2022-10-15T00:10:41.109Z,12.09
2022-10-15T00:13:08.183Z,12.10
2022-10-15T00:15:36.659Z,12.10
2022-10-15T00:18:03.705Z,12.09
2022-10-15T00:20:31.657Z,12.09
2022-10-15T00:22:58.720Z,12.08
2022-10-15T00:25:25.980Z,12.08
2022-10-15T00:27:53.071Z,12.08
2022-10-15T00:30:20.288Z,12.07
2022-10-15T00:32:47.321Z,12.07
2022-10-15T00:35:14.537Z,12.07
2022-10-15T00:37:44.023Z,12.07
2022-10-15T00:40:12.233Z,12.07
2022-10-15T00:42:39.310Z,12.07
2022-10-15T00:45:09.971Z,12.07
2022-10-15T00:47:48.970Z,12.06
2022-10-15T00:50:26.148Z,12.07
2022-10-15T00:52:58.399Z,12.07
2022-10-15T00:55:28.587Z,12.07
2022-10-15T00:57:55.978Z,12.06
2022-10-15T01:00:23.188Z,12.06
2022-10-15T01:02:50.261Z,12.07
2022-10-15T01:05:18.007Z,12.06
2022-10-15T01:07:45.030Z,12.06
2022-10-15T01:10:14.484Z,12.07
2022-10-15T01:12:44.523Z,12.07
2022-10-15T01:15:18.699Z,12.07
2022-10-15T01:17:47.957Z,12.07
2022-10-15T01:20:23.046Z,12.06
2022-10-15T01:22:59.636Z,12.07
2022-10-15T01:25:41.275Z,12.07
2022-10-15T01:28:25.376Z,12.07
2022-10-15T01:31:09.150Z,12.06
2022-10-15T01:33:36.242Z,12.06
2022-10-15T01:36:33.156Z,12.06
2022-10-15T01:39:04.868Z,12.05
2022-10-15T01:41:44.199Z,12.05
2022-10-15T01:44:20.819Z,12.05
2022-10-15T01:47:19.371Z,12.05
2022-10-15T01:49:49.196Z,12.05
2022-10-15T01:52:26.270Z,12.05
2022-10-15T01:54:54.138Z,12.05
2022-10-15T01:57:24.884Z,12.03
2022-10-15T01:59:52.686Z,12.03
2022-10-15T02:02:21.796Z,12.04
2022-10-15T02:04:48.970Z,12.03
2022-10-15T02:07:24.154Z,12.03
2022-10-15T02:09:54.035Z,12.03
2022-10-15T02:12:34.198Z,12.02
2022-10-15T02:15:10.756Z,12.02
2022-10-15T02:17:43.343Z,12.02
2022-10-15T02:20:14.297Z,12.02
2022-10-15T02:22:46.531Z,12.01
2022-10-15T02:25:18.523Z,12.02
2022-10-15T02:27:48.238Z,12.01
2022-10-15T02:30:15.593Z,12.02
2022-10-15T02:32:43.804Z,12.01
2022-10-15T02:35:12.138Z,12.03
2022-10-15T02:37:44.424Z,12.01
2022-10-15T02:40:12.340Z,12.02
2022-10-15T02:42:39.847Z,12.01
2022-10-15T02:45:08.495Z,12.02
2022-10-15T02:47:35.530Z,12.02
2022-10-15T02:50:03.900Z,12.02
2022-10-15T02:52:31.005Z,12.01
2022-10-15T02:58:03.149Z,12.01
2022-10-15T03:00:31.500Z,12.01
2022-10-15T03:02:58.663Z,12.02
2022-10-15T03:05:26.001Z,12.00
2022-10-15T03:07:54.894Z,12.01
2022-10-15T03:10:22.327Z,12.02
2022-10-15T03:12:49.392Z,12.02
2022-10-15T03:15:16.817Z,12.03
2022-10-15T03:17:46.140Z,12.03
2022-10-15T03:20:16.085Z,12.02
2022-10-15T03:22:43.473Z,12.03
2022-10-15T03:25:10.848Z,12.03
2022-10-15T03:27:38.507Z,12.03
2022-10-15T03:30:15.978Z,12.03
2022-10-15T03:35:15.226Z,12.03
2022-10-15T03:37:42.370Z,12.04
2022-10-15T03:40:13.618Z,12.04
2022-10-15T03:42:41.913Z,12.05
2022-10-15T03:45:10.688Z,12.05
2022-10-15T03:47:39.307Z,12.06
2022-10-15T03:50:07.593Z,12.05
2022-10-15T03:52:35.977Z,12.06
2022-10-15T03:55:03.618Z,12.06
2022-10-15T03:57:32.446Z,12.06
2022-10-15T04:00:05.241Z,12.08
2022-10-15T04:02:39.294Z,12.09
2022-10-15T04:05:11.278Z,12.10
2022-10-15T04:07:48.658Z,12.10
2022-10-15T04:10:19.949Z,12.11
2022-10-15T04:12:47.104Z,12.12
2022-10-15T04:15:16.589Z,12.13
2022-10-15T04:17:53.952Z,12.14
2022-10-15T04:20:21.713Z,12.16
2022-10-15T04:22:49.503Z,12.16
2022-10-15T04:25:17.170Z,12.15
2022-10-15T04:27:45.081Z,12.15
2022-10-15T04:30:15.946Z,12.17
2022-10-15T04:32:51.406Z,12.17
2022-10-15T04:35:18.821Z,12.18
2022-10-15T04:38:06.131Z,12.20
2022-10-15T04:41:04.441Z,12.21
2022-10-15T04:43:48.060Z,12.21
2022-10-15T04:46:15.168Z,12.22
2022-10-15T04:48:43.363Z,12.23
2022-10-15T04:51:14.546Z,12.24
2022-10-15T04:54:01.717Z,12.25
2022-10-15T04:56:30.304Z,12.27
2022-10-15T04:58:57.492Z,12.29
2022-10-15T05:01:27.764Z,12.28
2022-10-15T05:04:12.209Z,12.30
2022-10-15T05:06:40.549Z,12.32
2022-10-15T05:09:17.786Z,12.32
2022-10-15T05:11:49.569Z,12.32
2022-10-15T05:14:16.715Z,12.33
2022-10-15T05:16:51.537Z,12.32
2022-10-15T05:19:18.880Z,12.34
2022-10-15T05:24:24.741Z,12.37
2022-10-15T05:27:01.769Z,12.38
2022-10-15T05:29:31.902Z,12.37
2022-10-15T05:31:59.808Z,12.39
2022-10-15T05:34:30.445Z,12.40
2022-10-15T05:37:04.774Z,12.40
2022-10-15T05:39:32.326Z,12.40
2022-10-15T05:42:00.085Z,12.41
2022-10-15T05:44:37.733Z,12.44
2022-10-15T05:47:04.954Z,12.44
2022-10-15T05:49:33.385Z,12.45
2022-10-15T05:52:17.274Z,12.47
2022-10-15T05:55:04.655Z,12.49
2022-10-15T05:57:31.728Z,12.53
2022-10-15T06:00:01.149Z,12.55
2022-10-15T06:02:28.770Z,12.57
2022-10-15T06:04:56.337Z,12.61
2022-10-15T06:07:23.736Z,12.63
2022-10-15T06:09:51.703Z,12.65
2022-10-15T06:12:19.047Z,12.68
2022-10-15T06:14:46.156Z,12.66
2022-10-15T06:17:13.217Z,12.68
2022-10-15T06:19:42.573Z,12.70
2022-10-15T06:22:10.364Z,12.71
2022-10-15T06:24:37.534Z,12.72
2022-10-15T06:27:09.933Z,12.74
2022-10-15T06:29:37.028Z,12.77
2022-10-15T06:32:04.334Z,12.77
2022-10-15T06:34:31.369Z,12.79
2022-10-15T06:36:58.395Z,12.80
2022-10-15T06:39:25.436Z,12.81
2022-10-15T06:41:52.511Z,12.85
2022-10-15T06:44:19.561Z,12.87
2022-10-15T06:46:46.612Z,12.88
2022-10-15T06:49:13.686Z,12.91
2022-10-15T06:51:43.106Z,12.92
2022-10-15T06:54:10.198Z,12.95
2022-10-15T06:56:37.357Z,12.97
2022-10-15T06:59:05.472Z,12.99
2022-10-15T07:01:32.494Z,13.00
2022-10-15T07:03:59.552Z,13.05
2022-10-15T07:06:26.651Z,13.05
2022-10-15T07:08:53.735Z,13.05
2022-10-15T07:11:20.857Z,13.06
2022-10-15T07:13:47.918Z,13.07
2022-10-15T07:16:15.009Z,13.11
2022-10-15T07:18:42.075Z,13.13
2022-10-15T07:23:42.362Z,13.15
2022-10-15T07:26:09.496Z,13.14
2022-10-15T07:28:36.797Z,13.16
2022-10-15T07:31:04.990Z,13.16
2022-10-15T07:33:34.320Z,13.18
2022-10-15T07:36:08.362Z,13.19
2022-10-15T07:38:35.718Z,13.20
2022-10-15T07:41:03.975Z,13.20
2022-10-15T07:43:32.964Z,13.21
2022-10-15T07:46:00.504Z,13.22
2022-10-15T07:48:27.598Z,13.23
2022-10-15T07:50:55.756Z,13.24
2022-10-15T07:53:23.259Z,13.31
2022-10-15T07:55:58.101Z,13.39
2022-10-15T07:58:26.451Z,13.40
2022-10-15T08:00:53.559Z,13.45
2022-10-15T08:03:20.683Z,13.46
2022-10-15T08:05:47.976Z,13.48
2022-10-15T08:08:14.997Z,13.50
2022-10-15T08:10:42.037Z,13.49
2022-10-15T08:13:09.268Z,13.54
2022-10-15T08:15:38.759Z,13.54
2022-10-15T08:18:06.047Z,13.55
2022-10-15T08:20:33.262Z,13.53
2022-10-15T08:23:00.942Z,13.61
2022-10-15T08:25:28.053Z,13.62
2022-10-15T08:27:56.331Z,13.72
2022-10-15T08:30:23.467Z,13.81
2022-10-15T08:32:50.482Z,13.86
2022-10-15T08:35:17.553Z,13.96
2022-10-15T08:37:44.647Z,13.90
2022-10-15T08:40:12.745Z,13.94
2022-10-15T08:42:41.836Z,13.97
2022-10-15T08:45:19.588Z,13.96
2022-10-15T08:47:49.117Z,13.93
2022-10-15T08:50:25.563Z,13.93
2022-10-15T08:52:54.592Z,13.98
2022-10-15T08:57:56.151Z,13.97
2022-10-15T09:00:24.593Z,13.94
2022-10-15T09:02:59.018Z,13.93
2022-10-15T09:05:32.070Z,13.97
2022-10-15T09:08:17.230Z,13.98
2022-10-15T09:10:49.967Z,14.07
2022-10-15T09:13:24.228Z,14.08
2022-10-15T09:15:54.072Z,14.07
2022-10-15T09:18:23.522Z,14.11
2022-10-15T09:20:51.111Z,14.17
2022-10-15T09:23:20.205Z,14.19
2022-10-15T09:25:59.521Z,14.19
2022-10-15T09:28:34.693Z,14.24
2022-10-15T09:31:01.804Z,14.26
2022-10-15T09:33:45.405Z,14.33
2022-10-15T09:36:15.488Z,14.35
2022-10-15T09:38:54.120Z,14.41
2022-10-15T09:41:39.573Z,14.43
2022-10-15T09:44:12.152Z,14.52
2022-10-15T09:46:44.679Z,14.54
2022-10-15T09:49:22.295Z,14.47
2022-10-15T09:51:57.033Z,14.51
2022-10-15T09:54:33.198Z,14.49
2022-10-15T09:57:00.560Z,14.52
2022-10-15T09:59:28.167Z,14.52
2022-10-15T10:01:58.551Z,14.56
2022-10-15T10:04:27.307Z,14.63
2022-10-15T10:06:55.720Z,14.63
2022-10-15T10:09:24.780Z,14.64
2022-10-15T10:11:53.445Z,14.71
2022-10-15T10:14:31.652Z,14.72
2022-10-15T10:17:04.891Z,14.74
2022-10-15T10:19:31.974Z,14.86
2022-10-15T10:22:12.673Z,14.85
2022-10-15T10:24:42.852Z,14.91
2022-10-15T10:27:24.504Z,14.98
2022-10-15T10:29:54.793Z,15.05
2022-10-15T10:32:26.741Z,15.10
2022-10-15T10:34:54.345Z,15.22
2022-10-15T10:37:21.823Z,15.29
2022-10-15T10:39:53.288Z,15.29
2022-10-15T10:42:20.804Z,15.42
2022-10-15T10:44:48.176Z,15.60
2022-10-15T10:47:16.546Z,15.62
2022-10-15T10:49:48.502Z,15.45
2022-10-15T10:52:35.367Z,15.40
2022-10-15T10:55:05.214Z,15.40
2022-10-15T10:57:35.739Z,15.39
2022-10-15T11:00:04.781Z,15.36
2022-10-15T11:02:32.702Z,15.30
2022-10-15T11:04:59.757Z,15.29
2022-10-15T11:07:32.865Z,15.36
2022-10-15T11:10:04.051Z,15.39
2022-10-15T11:13:00.735Z,15.34
2022-10-15T11:15:33.953Z,15.31
2022-10-15T11:18:16.455Z,15.33
2022-10-15T11:20:57.888Z,15.31
2022-10-15T11:23:45.247Z,15.28
2022-10-15T11:26:41.444Z,15.20
2022-10-15T11:29:21.291Z,15.23
2022-10-15T11:32:14.585Z,15.29
2022-10-15T11:34:45.625Z,15.41
2022-10-15T11:37:26.456Z,15.35
2022-10-15T11:40:11.764Z,15.39
2022-10-15T11:42:55.757Z,15.38
2022-10-15T11:45:33.788Z,15.39
2022-10-15T11:48:07.178Z,15.35
2022-10-15T11:50:41.805Z,15.30
2022-10-15T11:53:08.924Z,15.28
2022-10-15T11:55:44.630Z,15.31
2022-10-15T11:58:14.923Z,15.24
2022-10-15T12:00:49.535Z,15.15
2022-10-15T12:03:25.933Z,15.00
2022-10-15T12:05:55.713Z,15.01
2022-10-15T12:08:24.105Z,15.02
2022-10-15T12:11:10.122Z,15.03
2022-10-15T12:13:39.086Z,15.03
2022-10-15T12:16:16.510Z,15.06
2022-10-15T12:18:48.325Z,14.96
2022-10-15T12:21:30.185Z,14.95
2022-10-15T12:23:57.434Z,15.00
2022-10-15T12:26:24.499Z,15.00
2022-10-15T12:28:59.422Z,15.02
2022-10-15T12:31:48.161Z,15.08
2022-10-15T12:34:29.419Z,15.02
2022-10-15T12:37:01.280Z,15.06
2022-10-15T12:42:29.579Z,15.16
2022-10-15T12:44:58.415Z,15.23
2022-10-15T12:47:44.464Z,15.24
2022-10-15T12:50:37.910Z,15.41
2022-10-15T12:53:07.114Z,15.38
2022-10-15T12:55:35.785Z,15.36
2022-10-15T12:58:04.923Z,15.25
2022-10-15T13:00:36.777Z,15.19
2022-10-15T13:03:19.255Z,15.32
2022-10-15T13:05:47.914Z,15.45
2022-10-15T13:08:25.040Z,15.60
2022-10-15T13:10:57.852Z,15.40
2022-10-15T13:13:27.737Z,15.30
2022-10-15T13:16:15.105Z,15.27
2022-10-15T13:18:47.990Z,15.29
2022-10-15T13:21:15.057Z,15.27
2022-10-15T13:23:46.443Z,15.36
2022-10-15T13:26:13.517Z,15.41
2022-10-15T13:28:42.070Z,15.46
2022-10-15T13:31:27.467Z,15.48
2022-10-15T13:34:04.613Z,15.51
2022-10-15T13:36:33.336Z,15.53
2022-10-15T13:39:03.289Z,15.43
2022-10-15T13:41:33.081Z,15.45
2022-10-15T13:44:01.120Z,15.39
2022-10-15T13:46:29.816Z,15.29
2022-10-15T13:48:58.028Z,15.22
2022-10-15T13:51:28.537Z,15.14
2022-10-15T13:53:55.816Z,15.14
2022-10-15T13:56:22.951Z,15.10
2022-10-15T13:58:50.156Z,15.10
2022-10-15T14:01:18.160Z,15.05
2022-10-15T14:03:52.676Z,15.07
2022-10-15T14:06:32.014Z,15.07
2022-10-15T14:09:00.636Z,15.12
2022-10-15T14:11:28.925Z,15.16
2022-10-15T14:13:57.043Z,15.20
2022-10-15T14:16:33.087Z,15.23
2022-10-15T14:19:09.083Z,15.19
2022-10-15T14:21:36.643Z,15.15
2022-10-15T14:24:07.547Z,15.14
2022-10-15T14:26:35.092Z,15.14
2022-10-15T14:29:02.502Z,15.15
2022-10-15T14:31:31.560Z,15.22
2022-10-15T14:33:58.681Z,15.26
2022-10-15T14:36:27.876Z,15.23
2022-10-15T14:38:55.575Z,15.24
2022-10-15T14:41:32.518Z,15.25
2022-10-15T14:44:18.498Z,15.25
2022-10-15T14:46:47.494Z,15.29
2022-10-15T14:49:20.745Z,15.34
2022-10-15T14:51:59.723Z,15.34
2022-10-15T14:54:31.378Z,15.34
2022-10-15T16:22:28.208Z,14.74
2022-10-15T16:24:55.366Z,14.72
2022-10-15T16:27:22.668Z,14.71
2022-10-15T16:29:50.054Z,14.71
2022-10-15T16:32:17.164Z,14.70
2022-10-15T16:34:44.266Z,14.71
2022-10-15T16:37:11.338Z,14.69
2022-10-15T16:39:38.382Z,14.71
2022-10-15T16:42:05.647Z,14.67
2022-10-15T16:44:32.727Z,14.67
2022-10-15T16:46:59.772Z,14.67
2022-10-15T16:49:27.115Z,14.66
2022-10-15T16:51:54.167Z,14.66
2022-10-15T16:54:21.635Z,14.64
2022-10-15T16:56:52.011Z,14.63
2022-10-15T16:59:20.414Z,14.54
2022-10-15T17:01:47.745Z,14.55
2022-10-15T17:04:14.881Z,14.57
2022-10-15T17:06:41.955Z,14.57
2022-10-15T17:09:09.157Z,14.58
2022-10-15T17:11:40.440Z,14.57
2022-10-15T17:14:09.369Z,14.58
2022-10-15T17:16:37.776Z,14.58
2022-10-15T17:19:05.349Z,14.57
2022-10-15T17:21:32.502Z,14.56
2022-10-15T17:24:01.041Z,14.53
2022-10-15T17:26:29.701Z,14.52
2022-10-15T17:28:56.748Z,14.50
2022-10-15T17:31:25.199Z,14.49
2022-10-15T17:34:00.756Z,14.49
2022-10-15T17:36:29.754Z,14.50
2022-10-15T17:38:57.361Z,14.50
2022-10-15T17:41:25.847Z,14.49
2022-10-15T17:43:52.937Z,14.48
2022-10-15T17:46:24.087Z,14.45
2022-10-15T17:48:51.921Z,14.45
2022-10-15T17:51:20.528Z,14.44
2022-10-15T17:53:50.723Z,14.45
2022-10-15T17:56:17.766Z,14.43
2022-10-15T17:58:46.148Z,14.41
2022-10-15T18:01:28.068Z,14.40
2022-10-15T18:04:06.820Z,14.41
2022-10-15T18:06:33.925Z,14.39
2022-10-15T18:09:01.063Z,14.40
2022-10-15T18:11:30.092Z,14.37
2022-10-15T18:13:57.261Z,14.37
2022-10-15T18:16:24.656Z,14.37
2022-10-15T18:18:52.676Z,14.35
2022-10-15T18:21:20.512Z,14.34
2022-10-15T18:23:47.733Z,14.32
2022-10-15T18:26:20.809Z,14.30
2022-10-15T18:28:49.174Z,14.31
2022-10-15T18:31:16.397Z,14.29
2022-10-15T18:33:44.418Z,14.27
2022-10-15T18:36:16.000Z,14.24
2022-10-15T18:38:43.547Z,14.22
2022-10-15T18:41:13.470Z,14.21
2022-10-15T18:43:40.606Z,14.20
2022-10-15T18:46:08.172Z,14.19
2022-10-15T18:48:36.640Z,14.19
2022-10-15T18:51:10.040Z,14.18
2022-10-15T18:53:37.973Z,14.17
2022-10-15T18:56:05.896Z,14.17
2022-10-15T18:58:33.051Z,14.16
2022-10-15T19:01:10.595Z,14.16
2022-10-15T19:03:37.687Z,14.13
2022-10-15T19:06:06.239Z,14.12
2022-10-15T19:08:34.058Z,14.11
2022-10-15T19:11:08.632Z,14.10
2022-10-15T19:13:36.716Z,14.12
2022-10-15T19:16:04.544Z,14.12
2022-10-15T19:18:31.964Z,14.11
2022-10-15T19:20:59.060Z,14.10
2022-10-15T19:23:26.279Z,14.10
2022-10-15T19:25:53.426Z,14.03
2022-10-15T19:28:20.522Z,13.99
2022-10-15T19:30:59.609Z,13.96
2022-10-15T19:33:27.235Z,13.94
2022-10-15T19:35:55.797Z,13.92
2022-10-15T19:38:23.055Z,13.88
2022-10-15T19:40:50.529Z,13.88
2022-10-15T19:43:19.036Z,13.88
2022-10-15T19:45:46.338Z,13.87
2022-10-15T19:48:14.894Z,13.86
2022-10-15T19:50:42.937Z,13.85
2022-10-15T19:53:11.783Z,13.84
2022-10-15T19:55:39.807Z,13.82
2022-10-15T19:58:07.574Z,13.82
2022-10-15T20:00:34.894Z,13.80
2022-10-15T20:03:02.287Z,13.80
2022-10-15T20:05:29.375Z,13.79
2022-10-15T20:07:56.439Z,13.78
2022-10-15T20:10:25.900Z,13.80
2022-10-15T20:12:53.765Z,13.80
2022-10-15T20:15:20.994Z,13.80
2022-10-15T20:17:48.155Z,13.81
2022-10-15T20:20:15.455Z,13.81
2022-10-15T20:22:42.566Z,13.82
2022-10-15T20:25:09.940Z,13.84
2022-10-15T20:27:37.045Z,13.85
2022-10-15T20:30:05.019Z,13.85
2022-10-15T20:32:35.326Z,13.86
2022-10-15T20:35:04.032Z,13.86
2022-10-15T20:37:31.143Z,13.87
2022-10-15T20:39:59.823Z,13.86
2022-10-15T20:42:27.799Z,13.85
2022-10-15T20:44:55.132Z,13.84
2022-10-15T20:47:23.917Z,13.85
2022-10-15T20:49:52.236Z,13.85
2022-10-15T20:52:22.767Z,13.84
2022-10-15T20:54:50.721Z,13.84
2022-10-15T20:57:17.926Z,13.84
2022-10-15T20:59:45.004Z,13.82
2022-10-15T21:02:12.092Z,13.84
2022-10-15T21:04:39.086Z,13.83
2022-10-15T21:07:06.313Z,13.82
2022-10-15T21:09:33.354Z,13.81
2022-10-15T21:12:00.479Z,13.81
2022-10-15T21:14:27.566Z,13.80
2022-10-15T21:16:54.616Z,13.81
2022-10-15T21:19:21.678Z,13.80
2022-10-15T21:21:48.720Z,13.79
2022-10-15T21:24:15.883Z,13.80
2022-10-15T21:26:43.042Z,13.80
2022-10-15T21:29:15.204Z,13.80
2022-10-15T21:31:43.277Z,13.80
2022-10-15T21:34:10.293Z,13.80
2022-10-15T21:36:37.421Z,13.79
2022-10-15T21:39:06.671Z,13.78
2022-10-15T21:41:35.105Z,13.78
2022-10-15T21:44:03.187Z,13.78
2022-10-15T21:46:33.300Z,13.77
2022-10-15T21:49:01.083Z,13.77
2022-10-15T21:51:29.572Z,13.76
2022-10-15T21:53:59.302Z,13.75
2022-10-15T21:56:26.487Z,13.75
2022-10-15T21:58:54.640Z,13.74
2022-10-15T22:01:31.124Z,13.74
2022-10-15T22:03:59.512Z,13.74
2022-10-15T22:06:27.113Z,13.74
2022-10-15T22:08:54.881Z,13.73
2022-10-15T22:11:23.671Z,13.73
2022-10-15T22:13:55.322Z,13.73
2022-10-15T22:16:23.312Z,13.72
2022-10-15T22:18:50.802Z,13.70
2022-10-15T22:21:19.248Z,13.70
2022-10-15T22:23:48.187Z,13.70
2022-10-15T22:26:15.852Z,13.69
2022-10-15T22:28:43.367Z,13.68
2022-10-15T22:31:11.882Z,13.68
2022-10-15T22:33:40.634Z,13.67
2022-10-15T22:36:13.281Z,13.66
2022-10-15T22:38:41.006Z,13.65
2022-10-15T22:41:09.788Z,13.62
2022-10-15T22:43:37.276Z,13.61
2022-10-15T22:46:04.346Z,13.60
2022-10-15T22:48:38.822Z,13.59
2022-10-15T22:51:07.544Z,13.59
2022-10-15T22:53:34.668Z,13.59
2022-10-15T22:56:02.783Z,13.59
2022-10-15T22:58:30.812Z,13.56
2022-10-15T23:01:06.763Z,13.55
2022-10-15T23:03:33.939Z,13.55
2022-10-15T23:06:01.027Z,13.54
2022-10-15T23:08:28.075Z,13.52
2022-10-15T23:10:55.215Z,13.52
2022-10-15T23:13:22.336Z,13.51
2022-10-15T23:15:49.442Z,13.50
2022-10-15T23:18:16.462Z,13.50
2022-10-15T23:20:43.520Z,13.50
2022-10-15T23:23:10.672Z,13.49
2022-10-15T23:25:38.404Z,13.49
2022-10-15T23:28:05.795Z,13.49
2022-10-15T23:30:32.843Z,13.46
2022-10-15T23:33:01.410Z,13.46
2022-10-15T23:35:28.614Z,13.46
2022-10-15T23:37:55.794Z,13.44
2022-10-15T23:40:22.838Z,13.44
2022-10-15T23:42:49.925Z,13.44
2022-10-15T23:45:17.032Z,13.43
2022-10-15T23:47:44.050Z,13.43
2022-10-15T23:50:11.089Z,13.43
2022-10-15T23:52:38.156Z,13.42
2022-10-15T23:55:05.253Z,13.42
2022-10-15T23:57:32.287Z,13.43
2022-10-15T23:59:59.971Z,13.43
